Time,TemperatureF,DewpointF,PressureIn,WindDirection,WindDirectionDegrees,WindSpeedMPH,WindSpeedGustMPH,Humidity,HourlyPrecipIn,Conditions,Clouds,dailyrainin,SoftwareType,DateUTC
2013-07-14 00:00:00,72.7,72.4,30.16,East,84,0.0,1.0,99,0.00,,---,0.26,VWS V14.01,2013-07-14 04:00:00,
2013-07-14 00:01:00,72.7,72.4,30.16,East,85,0.0,1.0,99,0.00,,---,0.26,VWS V14.01,2013-07-14 04:01:00,
2013-07-14 00:02:00,72.6,72.3,30.17,East,85,0.0,0.0,99,0.00,,---,0.00,VWS V14.01,2013-07-14 04:02:00,
2013-07-14 00:03:00,72.7,72.4,30.17,East,85,0.0,0.0,99,0.00,,---,0.00,VWS V14.01,2013-07-14 04:03:00,
2013-07-14 00:08:00,72.6,72.3,30.17,East,85,0.0,1.0,99,0.00,,---,0.00,VWS V14.01,2013-07-14 04:08:00,
2013-07-14 00:13:00,72.6,72.3,30.16,East,86,0.0,1.0,99,0.00,,---,0.00,VWS V14.01,2013-07-14 04:13:00,
2013-07-14 00:18:00,72.5,72.2,30.17,East,86,0.0,1.0,99,0.00,,---,0.00,VWS V14.01,2013-07-14 04:18:00,
2013-07-14 00:23:00,72.5,72.2,30.17,East,86,0.0,1.0,99,0.00,,---,0.00,VWS V14.01,2013-07-14 04:23:00,
2013-07-14 00:28:00,72.5,72.2,30.17,East,86,0.0,1.0,99,0.00,,---,0.00,VWS V14.01,2013-07-14 04:28:00,
2013-07-14 00:34:00,72.5,72.2,30.17,East,86,1.0,1.0,99,0.00,,---,0.00,VWS V14.01,2013-07-14 04:34:00,
2013-07-14 00:39:00,72.4,72.1,30.17,East,85,0.0,1.0,99,0.00,,---,0.00,VWS V14.01,2013-07-14 04:39:00,
2013-07-14 00:44:00,72.4,72.1,30.17,ESE,120,0.0,1.0,99,0.00,,---,0.00,VWS V14.01,2013-07-14 04:44:00,
2013-07-14 00:49:00,72.4,72.1,30.17,ESE,109,0.0,1.0,99,0.00,,---,0.00,VWS V14.01,2013-07-14 04:49:00,
2013-07-14 00:54:00,72.4,72.1,30.17,SE,134,1.0,1.0,99,0.00,,---,0.00,VWS V14.01,2013-07-14 04:54:00,
2013-07-14 00:59:00,72.5,72.2,30.17,ESE,114,0.0,1.0,99,0.00,,---,0.00,VWS V14.01,2013-07-14 04:59:00,
2013-07-14 01:04:00,72.4,72.1,30.17,ESE,114,0.0,1.0,99,0.00,,---,0.00,VWS V14.01,2013-07-14 05:04:00,
2013-07-14 01:09:00,72.4,72.1,30.17,SE,129,1.0,1.0,99,0.00,,---,0.00,VWS V14.01,2013-07-14 05:09:00,
2013-07-14 01:14:00,72.4,72.1,30.17,SE,131,0.0,1.0,99,0.00,,---,0.00,VWS V14.01,2013-07-14 05:14:00,
2013-07-14 01:20:00,72.3,72.0,30.17,SE,131,0.0,1.0,99,0.00,,---,0.00,VWS V14.01,2013-07-14 05:20:00,
2013-07-14 01:25:00,72.3,72.0,30.17,SE,131,0.0,1.0,99,0.00,,---,0.00,VWS V14.01,2013-07-14 05:25:00,
2013-07-14 01:30:00,72.2,71.9,30.17,SE,131,0.0,1.0,99,0.00,,---,0.00,VWS V14.01,2013-07-14 05:30:00,
2013-07-14 01:35:00,72.1,71.8,30.18,SE,131,0.0,0.0,99,0.00,,---,0.00,VWS V14.01,2013-07-14 05:35:00,
2013-07-14 01:40:00,72.1,71.8,30.18,SE,131,0.0,1.0,99,0.00,,---,0.00,VWS V14.01,2013-07-14 05:40:00,
2013-07-14 01:45:00,72.0,71.7,30.18,SE,131,0.0,1.0,99,0.00,,---,0.00,VWS V14.01,2013-07-14 05:45:00,
2013-07-14 01:50:00,72.0,71.7,30.17,SE,131,0.0,1.0,99,0.00,,---,0.00,VWS V14.01,2013-07-14 05:50:00,
2013-07-14 01:55:00,72.0,71.7,30.18,SE,131,0.0,1.0,99,0.00,,---,0.00,VWS V14.01,2013-07-14 05:55:00,
2013-07-14 02:00:00,71.9,71.6,30.18,SE,131,0.0,1.0,99,0.00,,---,0.00,VWS V14.01,2013-07-14 06:00:00,
2013-07-14 02:05:00,71.8,71.5,30.18,SE,131,0.0,1.0,99,0.00,,---,0.00,VWS V14.01,2013-07-14 06:05:00,
2013-07-14 02:10:00,71.7,71.4,30.18,SE,131,0.0,1.0,99,0.00,,---,0.00,VWS V14.01,2013-07-14 06:10:00,
2013-07-14 02:16:00,71.6,71.3,30.18,SE,131,0.0,1.0,99,0.00,,---,0.00,VWS V14.01,2013-07-14 06:16:00,
2013-07-14 02:21:00,71.5,71.2,30.18,SE,131,0.0,1.0,99,0.00,,---,0.00,VWS V14.01,2013-07-14 06:21:00,
2013-07-14 02:26:00,71.5,71.2,30.18,SE,131,0.0,1.0,99,0.00,,---,0.00,VWS V14.01,2013-07-14 06:26:00,
2013-07-14 02:31:00,71.5,71.2,30.18,SE,131,0.0,1.0,99,0.00,,---,0.00,VWS V14.01,2013-07-14 06:31:00,
2013-07-14 02:36:00,71.6,71.3,30.18,SE,131,0.0,0.0,99,0.00,,---,0.00,VWS V14.01,2013-07-14 06:36:00,
2013-07-14 02:41:00,71.6,71.3,30.18,SE,131,0.0,0.0,99,0.00,,---,0.00,VWS V14.01,2013-07-14 06:41:00,
2013-07-14 02:46:00,71.7,71.4,30.18,SE,131,0.0,0.0,99,0.00,,---,0.00,VWS V14.01,2013-07-14 06:46:00,
2013-07-14 02:51:00,71.6,71.3,30.18,SE,131,0.0,0.0,99,0.00,,---,0.00,VWS V14.01,2013-07-14 06:51:00,
2013-07-14 02:56:00,71.6,71.3,30.18,SE,131,0.0,0.0,99,0.00,,---,0.00,VWS V14.01,2013-07-14 06:56:00,
2013-07-14 03:01:00,71.5,71.2,30.18,SE,131,0.0,0.0,99,0.00,,---,0.00,VWS V14.01,2013-07-14 07:01:00,
2013-07-14 03:06:00,71.5,71.2,30.18,SE,128,0.0,1.0,99,0.00,,---,0.00,VWS V14.01,2013-07-14 07:06:00,
2013-07-14 03:11:00,71.5,71.2,30.18,SE,128,0.0,1.0,99,0.00,,---,0.00,VWS V14.01,2013-07-14 07:11:00,
2013-07-14 03:16:00,71.5,71.2,30.18,SE,129,0.0,1.0,99,0.00,,---,0.00,VWS V14.01,2013-07-14 07:16:00,
2013-07-14 03:22:00,71.4,71.1,30.18,SE,129,0.0,1.0,99,0.00,,---,0.00,VWS V14.01,2013-07-14 07:22:00,
2013-07-14 03:27:00,71.4,71.1,30.18,SE,129,0.0,1.0,99,0.00,,---,0.00,VWS V14.01,2013-07-14 07:27:00,
2013-07-14 03:32:00,71.4,71.1,30.18,SE,129,0.0,0.0,99,0.00,,---,0.00,VWS V14.01,2013-07-14 07:32:00,
2013-07-14 03:37:00,71.3,71.0,30.18,SE,129,0.0,0.0,99,0.00,,---,0.00,VWS V14.01,2013-07-14 07:37:00,
2013-07-14 03:42:00,71.3,71.0,30.18,SE,129,0.0,0.0,99,0.00,,---,0.00,VWS V14.01,2013-07-14 07:42:00,
2013-07-14 03:47:00,71.3,71.0,30.18,SE,128,0.0,1.0,99,0.00,,---,0.00,VWS V14.01,2013-07-14 07:47:00,
2013-07-14 03:52:00,71.2,70.9,30.18,SE,129,0.0,1.0,99,0.00,,---,0.00,VWS V14.01,2013-07-14 07:52:00,
2013-07-14 03:57:00,71.2,70.9,30.18,SE,128,0.0,1.0,99,0.00,,---,0.00,VWS V14.01,2013-07-14 07:57:00,
2013-07-14 04:02:00,71.2,70.9,30.18,SE,129,0.0,0.0,99,0.00,,---,0.00,VWS V14.01,2013-07-14 08:02:00,
2013-07-14 04:07:00,71.2,70.9,30.18,SE,129,0.0,1.0,99,0.00,,---,0.00,VWS V14.01,2013-07-14 08:07:00,
2013-07-14 04:13:00,71.2,70.9,30.19,SE,133,0.0,1.0,99,0.00,,---,0.00,VWS V14.01,2013-07-14 08:13:00,
2013-07-14 04:18:00,71.1,70.8,30.19,SE,132,0.0,1.0,99,0.00,,---,0.00,VWS V14.01,2013-07-14 08:18:00,
2013-07-14 04:23:00,71.0,70.7,30.19,SE,132,0.0,1.0,99,0.00,,---,0.00,VWS V14.01,2013-07-14 08:23:00,
2013-07-14 04:28:00,71.0,70.7,30.19,SE,132,0.0,1.0,99,0.00,,---,0.00,VWS V14.01,2013-07-14 08:28:00,
2013-07-14 04:33:00,71.0,70.7,30.19,NNE,22,0.0,1.0,99,0.00,,---,0.00,VWS V14.01,2013-07-14 08:33:00,
2013-07-14 04:38:00,70.9,70.6,30.19,NNE,21,0.0,1.0,99,0.00,,---,0.00,VWS V14.01,2013-07-14 08:38:00,
2013-07-14 04:43:00,70.8,70.5,30.19,NNE,21,0.0,1.0,99,0.00,,---,0.00,VWS V14.01,2013-07-14 08:43:00,
2013-07-14 04:48:00,70.7,70.4,30.19,NNE,21,0.0,1.0,99,0.00,,---,0.00,VWS V14.01,2013-07-14 08:48:00,
2013-07-14 04:53:00,70.5,70.2,30.20,NNE,22,0.0,1.0,99,0.00,,---,0.00,VWS V14.01,2013-07-14 08:53:00,
2013-07-14 04:58:00,70.5,70.2,30.20,NNE,22,0.0,1.0,99,0.00,,---,0.00,VWS V14.01,2013-07-14 08:58:00,
2013-07-14 05:03:00,70.4,70.1,30.20,NNE,21,0.0,0.0,99,0.00,,---,0.00,VWS V14.01,2013-07-14 09:03:00,
2013-07-14 05:09:00,70.4,70.1,30.20,NNE,22,0.0,1.0,99,0.00,,---,0.00,VWS V14.01,2013-07-14 09:09:00,
2013-07-14 05:14:00,70.4,70.1,30.20,NNE,21,1.0,1.0,99,0.00,,---,0.00,VWS V14.01,2013-07-14 09:14:00,
2013-07-14 05:19:00,70.5,70.2,30.20,NNE,21,0.0,1.0,99,0.00,,---,0.00,VWS V14.01,2013-07-14 09:19:00,
2013-07-14 05:24:00,70.4,70.1,30.20,NNE,21,0.0,1.0,99,0.00,,---,0.00,VWS V14.01,2013-07-14 09:24:00,
2013-07-14 05:29:00,70.4,70.1,30.20,NNE,21,0.0,1.0,99,0.00,,---,0.00,VWS V14.01,2013-07-14 09:29:00,
2013-07-14 05:34:00,70.4,70.1,30.21,NNE,21,0.0,0.0,99,0.00,,---,0.00,VWS V14.01,2013-07-14 09:34:00,
2013-07-14 05:39:00,70.4,70.1,30.21,NNE,22,0.0,0.0,99,0.00,,---,0.00,VWS V14.01,2013-07-14 09:39:00,
2013-07-14 05:44:00,70.4,70.1,30.22,NNE,21,0.0,0.0,99,0.00,,---,0.00,VWS V14.01,2013-07-14 09:44:00,
2013-07-14 05:49:00,70.5,70.5,30.22,NNE,22,0.0,0.0,100,0.00,,---,0.00,VWS V14.01,2013-07-14 09:49:00,
2013-07-14 05:54:00,70.6,70.6,30.22,NNE,22,0.0,0.0,100,0.00,,---,0.00,VWS V14.01,2013-07-14 09:54:00,
2013-07-14 05:59:00,70.7,70.7,30.22,NNE,22,0.0,0.0,100,0.00,,---,0.00,VWS V14.01,2013-07-14 09:59:00,
2013-07-14 06:04:00,70.7,70.7,30.22,NNE,21,0.0,0.0,100,0.00,,---,0.00,VWS V14.01,2013-07-14 10:04:00,
2013-07-14 06:09:00,70.7,70.7,30.22,NNE,21,0.0,0.0,100,0.00,,---,0.00,VWS V14.01,2013-07-14 10:09:00,
2013-07-14 06:15:00,70.8,70.8,30.22,NNE,22,0.0,0.0,100,0.00,,---,0.00,VWS V14.01,2013-07-14 10:15:00,
2013-07-14 06:20:00,70.8,70.8,30.23,NNE,22,0.0,0.0,100,0.00,,---,0.00,VWS V14.01,2013-07-14 10:20:00,
2013-07-14 06:25:00,70.8,70.8,30.23,NNE,21,0.0,0.0,100,0.00,,---,0.00,VWS V14.01,2013-07-14 10:25:00,
2013-07-14 06:30:00,70.8,70.8,30.23,NNE,21,0.0,0.0,100,0.00,,---,0.00,VWS V14.01,2013-07-14 10:30:00,
2013-07-14 06:35:00,70.9,70.9,30.23,NNE,21,0.0,0.0,100,0.00,,---,0.00,VWS V14.01,2013-07-14 10:35:00,
2013-07-14 06:40:00,71.0,71.0,30.23,NNE,22,0.0,0.0,100,0.00,,---,0.00,VWS V14.01,2013-07-14 10:40:00,
2013-07-14 06:45:00,71.1,71.1,30.24,NNE,21,0.0,0.0,100,0.00,,---,0.00,VWS V14.01,2013-07-14 10:45:00,
2013-07-14 06:50:00,71.2,71.2,30.24,NNE,21,0.0,0.0,100,0.00,,---,0.00,VWS V14.01,2013-07-14 10:50:00,
2013-07-14 06:55:00,71.3,71.3,30.24,NNE,22,0.0,0.0,100,0.00,,---,0.00,VWS V14.01,2013-07-14 10:55:00,
2013-07-14 07:00:00,71.3,71.3,30.24,NNE,21,0.0,0.0,100,0.00,,---,0.00,VWS V14.01,2013-07-14 11:00:00,
2013-07-14 07:05:00,71.3,71.3,30.24,NNE,22,0.0,0.0,100,0.00,,---,0.00,VWS V14.01,2013-07-14 11:05:00,
2013-07-14 07:11:00,71.4,71.4,30.24,NNE,21,0.0,0.0,100,0.00,,---,0.00,VWS V14.01,2013-07-14 11:11:00,
2013-07-14 07:16:00,71.5,71.5,30.24,NNE,21,0.0,0.0,100,0.00,,---,0.00,VWS V14.01,2013-07-14 11:16:00,
2013-07-14 07:21:00,71.6,71.6,30.24,East,101,0.0,0.0,100,0.00,,---,0.00,VWS V14.01,2013-07-14 11:21:00,
2013-07-14 07:26:00,71.7,71.7,30.24,ESE,102,0.0,0.0,100,0.00,,---,0.00,VWS V14.01,2013-07-14 11:26:00,
2013-07-14 07:31:00,71.9,71.9,30.24,East,101,0.0,0.0,100,0.00,,---,0.00,VWS V14.01,2013-07-14 11:31:00,
2013-07-14 07:36:00,72.1,72.1,30.24,East,101,0.0,0.0,100,0.00,,---,0.00,VWS V14.01,2013-07-14 11:36:00,
2013-07-14 07:41:00,72.2,72.2,30.24,East,101,0.0,0.0,100,0.00,,---,0.00,VWS V14.01,2013-07-14 11:41:00,
2013-07-14 07:46:00,72.3,72.3,30.24,ESE,102,0.0,0.0,100,0.00,,---,0.00,VWS V14.01,2013-07-14 11:46:00,
2013-07-14 07:51:00,72.5,72.5,30.24,East,101,0.0,0.0,100,0.00,,---,0.00,VWS V14.01,2013-07-14 11:51:00,
2013-07-14 07:56:00,72.6,72.6,30.24,ESE,102,0.0,0.0,100,0.00,,---,0.00,VWS V14.01,2013-07-14 11:56:00,
2013-07-14 08:01:00,72.8,72.8,30.25,East,101,0.0,0.0,100,0.00,,---,0.00,VWS V14.01,2013-07-14 12:01:00,
2013-07-14 08:07:00,72.8,72.8,30.25,East,101,0.0,0.0,100,0.00,,---,0.00,VWS V14.01,2013-07-14 12:07:00,
2013-07-14 08:12:00,72.9,72.9,30.25,ESE,102,0.0,0.0,100,0.00,,---,0.00,VWS V14.01,2013-07-14 12:12:00,
2013-07-14 08:17:00,73.1,73.1,30.25,East,101,0.0,0.0,100,0.00,,---,0.00,VWS V14.01,2013-07-14 12:17:00,
2013-07-14 08:22:00,73.3,73.3,30.25,East,101,0.0,0.0,100,0.00,,---,0.00,VWS V14.01,2013-07-14 12:22:00,
2013-07-14 08:27:00,73.5,73.5,30.26,East,101,0.0,0.0,100,0.00,,---,0.00,VWS V14.01,2013-07-14 12:27:00,
2013-07-14 08:32:00,73.7,73.7,30.26,ESE,102,0.0,0.0,100,0.00,,---,0.00,VWS V14.01,2013-07-14 12:32:00,
2013-07-14 08:37:00,73.8,73.8,30.26,SE,132,0.0,0.0,100,0.00,,---,0.00,VWS V14.01,2013-07-14 12:37:00,
2013-07-14 08:42:00,73.9,73.9,30.26,SE,132,0.0,1.0,100,0.00,,---,0.00,VWS V14.01,2013-07-14 12:42:00,
2013-07-14 08:48:00,74.1,74.1,30.26,SE,132,0.0,1.0,100,0.00,,---,0.00,VWS V14.01,2013-07-14 12:48:00,
2013-07-14 08:53:00,74.4,74.4,30.26,SE,133,1.0,1.0,100,0.00,,---,0.00,VWS V14.01,2013-07-14 12:53:00,
2013-07-14 08:58:00,74.4,74.4,30.26,SE,132,0.0,1.0,100,0.00,,---,0.00,VWS V14.01,2013-07-14 12:58:00,
2013-07-14 09:03:00,74.5,74.5,30.26,SE,133,0.0,0.0,100,0.00,,---,0.00,VWS V14.01,2013-07-14 13:03:00,
2013-07-14 09:08:00,74.7,74.7,30.26,SE,132,0.0,1.0,100,0.00,,---,0.00,VWS V14.01,2013-07-14 13:08:00,
2013-07-14 09:13:00,74.9,74.9,30.27,East,101,0.0,1.0,100,0.00,,---,0.00,VWS V14.01,2013-07-14 13:13:00,
2013-07-14 09:18:00,75.2,75.2,30.27,ENE,63,1.0,1.0,100,0.00,,---,0.00,VWS V14.01,2013-07-14 13:18:00,
2013-07-14 09:23:00,75.5,75.2,30.27,ENE,64,0.0,1.0,99,0.00,,---,0.00,VWS V14.01,2013-07-14 13:23:00,
2013-07-14 09:28:00,75.7,75.4,30.27,ESE,113,1.0,2.0,99,0.00,,---,0.00,VWS V14.01,2013-07-14 13:28:00,
2013-07-14 09:33:00,76.0,75.4,30.27,ESE,115,0.0,0.0,98,0.00,,---,0.00,VWS V14.01,2013-07-14 13:33:00,
2013-07-14 09:39:00,76.5,75.9,30.27,East,100,0.0,2.0,98,0.00,,---,0.00,VWS V14.01,2013-07-14 13:39:00,
2013-07-14 09:44:00,76.9,76.0,30.27,ENE,66,0.0,2.0,97,0.00,,---,0.00,VWS V14.01,2013-07-14 13:44:00,
2013-07-14 09:49:00,77.4,76.2,30.27,ENE,68,0.0,2.0,96,0.00,,---,0.00,VWS V14.01,2013-07-14 13:49:00,
2013-07-14 09:54:00,77.7,76.2,30.27,SSE,165,1.0,2.0,95,0.00,,---,0.00,VWS V14.01,2013-07-14 13:54:00,
2013-07-14 09:59:00,77.9,75.7,30.27,East,90,1.0,2.0,93,0.00,,---,0.00,VWS V14.01,2013-07-14 13:59:00,
2013-07-14 10:04:00,78.0,75.8,30.27,SE,135,1.0,1.0,93,0.00,,---,0.00,VWS V14.01,2013-07-14 14:04:00,
2013-07-14 10:09:00,78.5,76.0,30.27,SE,129,1.0,3.0,92,0.00,,---,0.00,VWS V14.01,2013-07-14 14:09:00,
2013-07-14 10:14:00,78.7,75.5,30.27,East,96,1.0,3.0,90,0.00,,---,0.00,VWS V14.01,2013-07-14 14:14:00,
2013-07-14 10:19:00,79.0,75.8,30.27,ESE,115,0.0,3.0,90,0.00,,---,0.00,VWS V14.01,2013-07-14 14:19:00,
2013-07-14 10:24:00,79.2,76.0,30.27,East,92,1.0,3.0,90,0.00,,---,0.00,VWS V14.01,2013-07-14 14:24:00,
2013-07-14 10:29:00,79.5,76.3,30.27,East,100,0.0,3.0,90,0.00,,---,0.00,VWS V14.01,2013-07-14 14:29:00,
2013-07-14 10:34:00,79.7,75.8,30.27,SE,128,1.0,2.0,88,0.00,,---,0.00,VWS V14.01,2013-07-14 14:34:00,
2013-07-14 10:40:00,80.1,76.2,30.27,SE,125,0.0,2.0,88,0.00,,---,0.00,VWS V14.01,2013-07-14 14:40:00,
2013-07-14 10:45:00,80.5,75.2,30.27,SSW,205,1.0,3.0,84,0.00,,---,0.00,VWS V14.01,2013-07-14 14:45:00,
2013-07-14 10:50:00,81.1,76.2,30.27,ESE,112,0.0,3.0,85,0.00,,---,0.00,VWS V14.01,2013-07-14 14:50:00,
2013-07-14 10:55:00,81.4,76.5,30.27,East,87,1.0,3.0,85,0.00,,---,0.00,VWS V14.01,2013-07-14 14:55:00,
2013-07-14 11:00:00,81.4,75.7,30.27,SE,140,0.0,3.0,83,0.00,,---,0.00,VWS V14.01,2013-07-14 15:00:00,
2013-07-14 11:05:00,81.6,75.9,30.27,ESE,120,1.0,2.0,83,0.00,,---,0.00,VWS V14.01,2013-07-14 15:05:00,
2013-07-14 11:10:00,81.6,75.9,30.27,ESE,120,0.0,2.0,83,0.00,,---,0.00,VWS V14.01,2013-07-14 15:10:00,
2013-07-14 11:15:00,82.1,75.7,30.27,ESE,118,0.0,3.0,81,0.00,,---,0.00,VWS V14.01,2013-07-14 15:15:00,
2013-07-14 11:21:00,82.9,76.5,30.27,East,98,0.0,3.0,81,0.00,,---,0.00,VWS V14.01,2013-07-14 15:21:00,
2013-07-14 11:26:00,83.3,75.3,30.27,ENE,61,0.0,3.0,77,0.00,,---,0.00,VWS V14.01,2013-07-14 15:26:00,
2013-07-14 11:31:00,83.6,74.8,30.27,ENE,63,0.0,3.0,75,0.00,,---,0.00,VWS V14.01,2013-07-14 15:31:00,
2013-07-14 11:36:00,83.7,75.3,30.27,ENE,67,1.0,2.0,76,0.00,,---,0.00,VWS V14.01,2013-07-14 15:36:00,
2013-07-14 11:41:00,84.3,75.5,30.27,SE,139,1.0,3.0,75,0.00,,---,0.00,VWS V14.01,2013-07-14 15:41:00,
2013-07-14 11:46:00,84.9,75.3,30.27,SE,132,1.0,3.0,73,0.00,,---,0.00,VWS V14.01,2013-07-14 15:46:00,
2013-07-14 11:51:00,85.4,75.8,30.27,NE,40,2.0,3.0,73,0.00,,---,0.00,VWS V14.01,2013-07-14 15:51:00,
2013-07-14 11:56:00,85.8,75.3,30.27,ESE,113,1.0,3.0,71,0.00,,---,0.00,VWS V14.01,2013-07-14 15:56:00,
2013-07-14 12:01:00,86.0,75.1,30.27,SSE,154,1.0,1.0,70,0.00,,---,0.00,VWS V14.01,2013-07-14 16:01:00,
2013-07-14 12:06:00,86.8,75.4,30.27,SE,136,1.0,2.0,69,0.00,,---,0.00,VWS V14.01,2013-07-14 16:06:00,
2013-07-14 12:11:00,87.2,75.4,30.27,NNE,26,1.0,3.0,68,0.00,,---,0.00,VWS V14.01,2013-07-14 16:11:00,
2013-07-14 12:16:00,87.4,76.0,30.27,East,95,1.0,3.0,69,0.00,,---,0.00,VWS V14.01,2013-07-14 16:16:00,
2013-07-14 12:21:00,87.3,75.9,30.27,SE,128,0.0,3.0,69,0.00,,---,0.00,VWS V14.01,2013-07-14 16:21:00,
2013-07-14 12:27:00,87.6,74.8,30.27,ESE,102,1.0,3.0,66,0.00,,---,0.00,VWS V14.01,2013-07-14 16:27:00,
2013-07-14 12:32:00,88.2,76.3,30.27,SE,136,2.0,2.0,68,0.00,,---,0.00,VWS V14.01,2013-07-14 16:32:00,
2013-07-14 12:37:00,88.4,75.6,30.27,SE,132,1.0,3.0,66,0.00,,---,0.00,VWS V14.01,2013-07-14 16:37:00,
2013-07-14 12:42:00,88.1,74.9,30.26,SE,125,1.0,3.0,65,0.00,,---,0.00,VWS V14.01,2013-07-14 16:42:00,
2013-07-14 12:47:00,88.5,76.2,30.26,East,81,2.0,3.0,67,0.00,,---,0.00,VWS V14.01,2013-07-14 16:47:00,
2013-07-14 12:52:00,88.2,73.6,30.26,SE,129,2.0,4.0,62,0.00,,---,0.00,VWS V14.01,2013-07-14 16:52:00,
2013-07-14 12:57:00,87.7,74.9,30.26,SE,128,1.0,4.0,66,0.00,,---,0.00,VWS V14.01,2013-07-14 16:57:00,
2013-07-14 13:02:00,88.3,74.1,30.26,ESE,122,1.0,3.0,63,0.00,,---,0.00,VWS V14.01,2013-07-14 17:02:00,
2013-07-14 13:07:00,88.0,75.7,30.26,West,270,0.0,3.0,67,0.00,,---,0.00,VWS V14.01,2013-07-14 17:07:00,
2013-07-14 13:12:00,88.6,75.8,30.25,West,268,0.0,3.0,66,0.00,,---,0.00,VWS V14.01,2013-07-14 17:12:00,
2013-07-14 13:17:00,88.7,75.9,30.25,North,11,0.0,3.0,66,0.00,,---,0.00,VWS V14.01,2013-07-14 17:17:00,
2013-07-14 13:23:00,88.8,76.0,30.26,SE,127,0.0,3.0,66,0.00,,---,0.00,VWS V14.01,2013-07-14 17:23:00,
2013-07-14 13:28:00,89.1,76.7,30.26,ESE,109,1.0,3.0,67,0.00,,---,0.00,VWS V14.01,2013-07-14 17:28:00,
2013-07-14 13:33:00,89.3,75.5,30.26,SE,136,0.0,2.0,64,0.00,,---,0.00,VWS V14.01,2013-07-14 17:33:00,
2013-07-14 13:38:00,90.0,76.7,30.25,SE,131,2.0,3.0,65,0.00,,---,0.00,VWS V14.01,2013-07-14 17:38:00,
2013-07-14 13:43:00,89.1,74.9,30.25,ENE,73,2.0,4.0,63,0.00,,---,0.00,VWS V14.01,2013-07-14 17:43:00,
2013-07-14 13:48:00,88.5,76.2,30.25,ENE,65,1.0,4.0,67,0.00,,---,0.00,VWS V14.01,2013-07-14 17:48:00,
2013-07-14 13:53:00,87.1,75.3,30.25,North,350,1.0,4.0,68,0.00,,---,0.00,VWS V14.01,2013-07-14 17:53:00,
2013-07-14 13:58:00,87.0,75.2,30.25,East,81,1.0,4.0,68,0.00,,---,0.00,VWS V14.01,2013-07-14 17:58:00,
2013-07-14 14:03:00,87.8,76.4,30.25,ENE,68,1.0,1.0,69,0.00,,---,0.00,VWS V14.01,2013-07-14 18:03:00,
2013-07-14 14:08:00,87.8,75.9,30.25,SE,129,0.0,2.0,68,0.00,,---,0.00,VWS V14.01,2013-07-14 18:08:00,
2013-07-14 14:13:00,88.5,76.6,30.25,ESE,117,1.0,4.0,68,0.00,,---,0.00,VWS V14.01,2013-07-14 18:13:00,
2013-07-14 14:18:00,88.3,76.4,30.25,NE,56,1.0,4.0,68,0.00,,---,0.00,VWS V14.01,2013-07-14 18:18:00,
2013-07-14 14:23:00,88.1,77.1,30.25,SE,131,1.0,4.0,70,0.00,,---,0.00,VWS V14.01,2013-07-14 18:23:00,
2013-07-14 14:28:00,87.5,76.5,30.25,ENE,77,1.0,4.0,70,0.00,,---,0.00,VWS V14.01,2013-07-14 18:28:00,
2013-07-14 14:33:00,86.4,75.9,30.25,ENE,65,0.0,1.0,71,0.00,,---,0.00,VWS V14.01,2013-07-14 18:33:00,
2013-07-14 14:38:00,86.4,75.9,30.24,SE,142,2.0,2.0,71,0.00,,---,0.00,VWS V14.01,2013-07-14 18:38:00,
2013-07-14 14:44:00,87.0,76.0,30.25,ESE,123,0.0,2.0,70,0.00,,---,0.00,VWS V14.01,2013-07-14 18:44:00,
2013-07-14 14:49:00,87.5,75.6,30.24,ESE,120,0.0,4.0,68,0.00,,---,0.00,VWS V14.01,2013-07-14 18:49:00,
2013-07-14 14:54:00,87.7,74.9,30.24,ESE,102,0.0,4.0,66,0.00,,---,0.00,VWS V14.01,2013-07-14 18:54:00,
2013-07-14 14:59:00,87.7,75.4,30.24,ESE,110,0.0,4.0,67,0.00,,---,0.00,VWS V14.01,2013-07-14 18:59:00,
2013-07-14 15:04:00,87.8,75.9,30.24,ESE,105,1.0,1.0,68,0.00,,---,0.00,VWS V14.01,2013-07-14 19:04:00,
2013-07-14 15:09:00,88.1,75.8,30.24,SE,134,1.0,5.0,67,0.00,,---,0.00,VWS V14.01,2013-07-14 19:09:00,
2013-07-14 15:14:00,88.3,76.0,30.23,ENE,58,0.0,5.0,67,0.00,,---,0.00,VWS V14.01,2013-07-14 19:14:00,
2013-07-14 15:19:00,88.3,75.1,30.24,ESE,117,1.0,5.0,65,0.00,,---,0.00,VWS V14.01,2013-07-14 19:19:00,
2013-07-14 15:24:00,88.2,75.4,30.23,ENE,72,0.0,5.0,66,0.00,,---,0.00,VWS V14.01,2013-07-14 19:24:00,
2013-07-14 15:29:00,88.6,76.7,30.23,SE,124,0.0,5.0,68,0.00,,---,0.00,VWS V14.01,2013-07-14 19:29:00,
2013-07-14 15:34:00,89.0,76.2,30.23,ESE,105,1.0,1.0,66,0.00,,---,0.00,VWS V14.01,2013-07-14 19:34:00,
2013-07-14 15:39:00,89.2,75.9,30.23,ENE,61,2.0,3.0,65,0.00,,---,0.00,VWS V14.01,2013-07-14 19:39:00,
2013-07-14 15:44:00,88.8,75.5,30.23,NNE,25,2.0,3.0,65,0.00,,---,0.00,VWS V14.01,2013-07-14 19:44:00,
2013-07-14 15:49:00,88.6,75.8,30.23,East,85,1.0,3.0,66,0.00,,---,0.00,VWS V14.01,2013-07-14 19:49:00,
2013-07-14 15:55:00,88.3,75.5,30.23,SSE,162,1.0,4.0,66,0.00,,---,0.00,VWS V14.01,2013-07-14 19:55:00,
2013-07-14 16:00:00,88.4,76.1,30.23,ESE,109,1.0,4.0,67,0.00,,---,0.00,VWS V14.01,2013-07-14 20:00:00,
2013-07-14 16:05:00,88.7,75.4,30.23,SE,145,1.0,3.0,65,0.00,,---,0.00,VWS V14.01,2013-07-14 20:05:00,
2013-07-14 16:10:00,88.8,76.4,30.22,East,89,1.0,3.0,67,0.00,,---,0.00,VWS V14.01,2013-07-14 20:10:00,
2013-07-14 16:15:00,88.6,75.8,30.22,NE,41,2.0,4.0,66,0.00,,---,0.00,VWS V14.01,2013-07-14 20:15:00,
2013-07-14 16:20:00,87.4,75.6,30.22,NE,53,0.0,4.0,68,0.00,,---,0.00,VWS V14.01,2013-07-14 20:20:00,
2013-07-14 16:25:00,86.8,74.1,30.22,NE,49,0.0,4.0,66,0.00,,---,0.00,VWS V14.01,2013-07-14 20:25:00,
2013-07-14 16:30:00,87.1,74.4,30.22,ENE,70,0.0,4.0,66,0.00,,---,0.00,VWS V14.01,2013-07-14 20:30:00,
2013-07-14 16:35:00,87.6,74.8,30.21,ENE,71,1.0,2.0,66,0.00,,---,0.00,VWS V14.01,2013-07-14 20:35:00,
2013-07-14 16:40:00,87.6,74.4,30.22,East,87,2.0,2.0,65,0.00,,---,0.00,VWS V14.01,2013-07-14 20:40:00,
2013-07-14 16:45:00,87.5,74.3,30.21,SE,131,0.0,3.0,65,0.00,,---,0.00,VWS V14.01,2013-07-14 20:45:00,
2013-07-14 16:50:00,87.7,74.5,30.21,SE,134,0.0,3.0,65,0.00,,---,0.00,VWS V14.01,2013-07-14 20:50:00,
2013-07-14 16:55:00,87.1,74.8,30.22,East,90,1.0,3.0,67,0.00,,---,0.00,VWS V14.01,2013-07-14 20:55:00,
2013-07-14 17:01:00,86.7,74.9,30.21,ESE,120,0.0,3.0,68,0.00,,---,0.00,VWS V14.01,2013-07-14 21:01:00,
2013-07-14 17:06:00,86.7,74.9,30.21,SE,131,0.0,1.0,68,0.00,,---,0.00,VWS V14.01,2013-07-14 21:06:00,
2013-07-14 17:11:00,86.5,75.1,30.22,ENE,71,0.0,2.0,69,0.00,,---,0.00,VWS V14.01,2013-07-14 21:11:00,
2013-07-14 17:16:00,86.5,75.6,30.21,SE,136,1.0,2.0,70,0.00,,---,0.00,VWS V14.01,2013-07-14 21:16:00,
2013-07-14 17:21:00,86.4,74.6,30.21,East,84,1.0,2.0,68,0.00,,---,0.00,VWS V14.01,2013-07-14 21:21:00,
2013-07-14 17:26:00,85.7,74.8,30.21,ENE,69,2.0,3.0,70,0.00,,---,0.00,VWS V14.01,2013-07-14 21:26:00,
2013-07-14 17:31:00,85.3,75.2,30.22,ENE,70,0.0,0.0,72,0.00,,---,0.00,VWS V14.01,2013-07-14 21:31:00,
2013-07-14 17:36:00,85.0,75.8,30.22,ENE,70,0.0,0.0,74,0.00,,---,0.00,VWS V14.01,2013-07-14 21:36:00,
2013-07-14 17:41:00,84.8,75.2,30.21,ENE,71,0.0,1.0,73,0.00,,---,0.00,VWS V14.01,2013-07-14 21:41:00,
2013-07-14 17:46:00,84.5,75.7,30.21,ENE,70,0.0,1.0,75,0.00,,---,0.00,VWS V14.01,2013-07-14 21:46:00,
2013-07-14 17:52:00,84.1,75.3,30.21,ENE,70,0.0,1.0,75,0.00,,---,0.00,VWS V14.01,2013-07-14 21:52:00,
2013-07-14 17:57:00,84.1,75.7,30.21,ENE,69,1.0,1.0,76,0.00,,---,0.00,VWS V14.01,2013-07-14 21:57:00,
2013-07-14 18:02:00,84.0,75.6,30.21,ENE,70,0.0,0.0,76,0.00,,---,0.00,VWS V14.01,2013-07-14 22:02:00,
2013-07-14 18:07:00,84.1,75.7,30.21,ENE,71,1.0,1.0,76,0.00,,---,0.00,VWS V14.01,2013-07-14 22:07:00,
2013-07-14 18:12:00,84.1,75.7,30.21,NE,43,0.0,2.0,76,0.00,,---,0.00,VWS V14.01,2013-07-14 22:12:00,
2013-07-14 18:17:00,84.2,75.8,30.21,NE,43,0.0,2.0,76,0.00,,---,0.00,VWS V14.01,2013-07-14 22:17:00,
2013-07-14 18:22:00,84.1,75.7,30.21,NE,43,0.0,2.0,76,0.00,,---,0.00,VWS V14.01,2013-07-14 22:22:00,
2013-07-14 18:27:00,84.1,76.1,30.21,NE,43,0.0,2.0,77,0.00,,---,0.00,VWS V14.01,2013-07-14 22:27:00,
2013-07-14 18:32:00,84.1,76.1,30.21,NE,43,0.0,0.0,77,0.00,,---,0.00,VWS V14.01,2013-07-14 22:32:00,
2013-07-14 18:37:00,84.0,75.2,30.22,East,79,0.0,1.0,75,0.00,,---,0.00,VWS V14.01,2013-07-14 22:37:00,
2013-07-14 18:42:00,83.9,74.7,30.22,East,84,0.0,2.0,74,0.00,,---,0.00,VWS V14.01,2013-07-14 22:42:00,
2013-07-14 18:47:00,83.7,74.1,30.22,East,84,0.0,2.0,73,0.00,,---,0.00,VWS V14.01,2013-07-14 22:47:00,
2013-07-14 18:53:00,83.7,74.5,30.22,East,84,0.0,2.0,74,0.00,,---,0.00,VWS V14.01,2013-07-14 22:53:00,
2013-07-14 18:58:00,83.6,74.4,30.22,SE,136,0.0,2.0,74,0.00,,---,0.00,VWS V14.01,2013-07-14 22:58:00,
2013-07-14 19:03:00,83.5,74.8,30.22,SE,136,0.0,0.0,75,0.00,,---,0.00,VWS V14.01,2013-07-14 23:03:00,
2013-07-14 19:08:00,83.3,74.6,30.22,SE,137,0.0,0.0,75,0.00,,---,0.00,VWS V14.01,2013-07-14 23:08:00,
2013-07-14 19:13:00,83.2,74.5,30.22,SE,136,0.0,0.0,75,0.00,,---,0.00,VWS V14.01,2013-07-14 23:13:00,
2013-07-14 19:18:00,83.2,74.5,30.22,SE,136,0.0,0.0,75,0.00,,---,0.00,VWS V14.01,2013-07-14 23:18:00,
2013-07-14 19:23:00,83.2,74.5,30.22,SE,136,0.0,0.0,75,0.00,,---,0.00,VWS V14.01,2013-07-14 23:23:00,
2013-07-14 19:28:00,83.1,74.4,30.22,SE,137,0.0,0.0,75,0.00,,---,0.00,VWS V14.01,2013-07-14 23:28:00,
2013-07-14 19:33:00,83.1,74.8,30.22,South,177,0.0,2.0,76,0.00,,---,0.00,VWS V14.01,2013-07-14 23:33:00,
2013-07-14 19:38:00,82.7,75.5,30.22,SSE,159,0.0,2.0,79,0.00,,---,0.00,VWS V14.01,2013-07-14 23:38:00,
2013-07-14 19:43:00,81.9,75.5,30.23,SSE,160,0.0,2.0,81,0.00,,---,0.00,VWS V14.01,2013-07-14 23:43:00,
2013-07-14 19:48:00,80.7,74.7,30.23,SSE,159,0.0,2.0,82,0.00,,---,0.00,VWS V14.01,2013-07-14 23:48:00,
2013-07-14 19:54:00,79.9,75.0,30.23,SSE,160,0.0,2.0,85,0.00,,---,0.00,VWS V14.01,2013-07-14 23:54:00,
2013-07-14 19:59:00,79.3,74.8,30.23,SE,142,1.0,2.0,86,0.00,,---,0.00,VWS V14.01,2013-07-14 23:59:00,
2013-07-14 20:04:00,78.9,74.7,30.23,WSW,257,0.0,1.0,87,0.00,,---,0.00,VWS V14.01,2013-07-15 00:04:00,
2013-07-14 20:09:00,78.4,74.6,30.23,WSW,255,0.0,1.0,88,0.00,,---,0.00,VWS V14.01,2013-07-15 00:09:00,
2013-07-14 20:14:00,77.9,74.7,30.23,WSW,256,0.0,1.0,90,0.00,,---,0.00,VWS V14.01,2013-07-15 00:14:00,
2013-07-14 20:19:00,77.7,74.9,30.23,WSW,255,0.0,1.0,91,0.00,,---,0.00,VWS V14.01,2013-07-15 00:19:00,
2013-07-14 20:24:00,77.5,75.0,30.23,WSW,255,0.0,1.0,92,0.00,,---,0.00,VWS V14.01,2013-07-15 00:24:00,
2013-07-14 20:29:00,77.2,74.7,30.23,WSW,255,0.0,1.0,92,0.00,,---,0.00,VWS V14.01,2013-07-15 00:29:00,
2013-07-14 20:34:00,77.1,74.6,30.23,WSW,256,0.0,0.0,92,0.00,,---,0.00,VWS V14.01,2013-07-15 00:34:00,
2013-07-14 20:39:00,76.9,74.7,30.23,WSW,256,0.0,0.0,93,0.00,,---,0.00,VWS V14.01,2013-07-15 00:39:00,
2013-07-14 20:44:00,76.7,74.5,30.23,WSW,256,0.0,0.0,93,0.00,,---,0.00,VWS V14.01,2013-07-15 00:44:00,
2013-07-14 20:49:00,76.5,74.3,30.23,WSW,255,0.0,0.0,93,0.00,,---,0.00,VWS V14.01,2013-07-15 00:49:00,
2013-07-14 20:54:00,76.4,74.6,30.24,WSW,256,0.0,0.0,94,0.00,,---,0.00,VWS V14.01,2013-07-15 00:54:00,
2013-07-14 20:59:00,76.4,74.6,30.24,WSW,256,0.0,0.0,94,0.00,,---,0.00,VWS V14.01,2013-07-15 00:59:00,
2013-07-14 21:05:00,76.3,74.4,30.24,WSW,257,0.0,0.0,94,0.00,,---,0.00,VWS V14.01,2013-07-15 01:05:00,
2013-07-14 21:10:00,76.2,74.7,30.24,WSW,257,0.0,0.0,95,0.00,,---,0.00,VWS V14.01,2013-07-15 01:10:00,
2013-07-14 21:15:00,76.1,74.6,30.24,WSW,257,0.0,0.0,95,0.00,,---,0.00,VWS V14.01,2013-07-15 01:15:00,
2013-07-14 21:20:00,76.1,74.6,30.24,WSW,257,0.0,0.0,95,0.00,,---,0.00,VWS V14.01,2013-07-15 01:20:00,
2013-07-14 21:25:00,76.0,74.5,30.25,WSW,257,0.0,0.0,95,0.00,,---,0.00,VWS V14.01,2013-07-15 01:25:00,
2013-07-14 21:30:00,75.9,74.4,30.25,WSW,257,0.0,0.0,95,0.00,,---,0.00,VWS V14.01,2013-07-15 01:30:00,
2013-07-14 21:35:00,75.7,74.2,30.25,WSW,257,0.0,0.0,95,0.00,,---,0.00,VWS V14.01,2013-07-15 01:35:00,
2013-07-14 21:40:00,75.6,74.1,30.25,WSW,257,0.0,0.0,95,0.00,,---,0.00,VWS V14.01,2013-07-15 01:40:00,
2013-07-14 21:45:00,75.6,74.1,30.25,WSW,257,0.0,0.0,95,0.00,,---,0.00,VWS V14.01,2013-07-15 01:45:00,
2013-07-14 21:50:00,75.5,74.0,30.25,WSW,257,0.0,0.0,95,0.00,,---,0.00,VWS V14.01,2013-07-15 01:50:00,
2013-07-14 21:55:00,75.4,73.6,30.25,WSW,257,0.0,0.0,94,0.00,,---,0.00,VWS V14.01,2013-07-15 01:55:00,
2013-07-14 22:01:00,75.4,73.9,30.25,WSW,257,0.0,0.0,95,0.00,,---,0.00,VWS V14.01,2013-07-15 02:01:00,
2013-07-14 22:06:00,75.4,73.9,30.25,WSW,257,0.0,0.0,95,0.00,,---,0.00,VWS V14.01,2013-07-15 02:06:00,
2013-07-14 22:11:00,75.4,73.9,30.25,WSW,257,0.0,0.0,95,0.00,,---,0.00,VWS V14.01,2013-07-15 02:11:00,
2013-07-14 22:16:00,75.3,73.8,30.26,WSW,257,0.0,0.0,95,0.00,,---,0.00,VWS V14.01,2013-07-15 02:16:00,
2013-07-14 22:21:00,75.2,73.7,30.26,WSW,257,0.0,0.0,95,0.00,,---,0.00,VWS V14.01,2013-07-15 02:21:00,
2013-07-14 22:26:00,75.1,73.6,30.26,WSW,257,0.0,0.0,95,0.00,,---,0.00,VWS V14.01,2013-07-15 02:26:00,
2013-07-14 22:31:00,75.0,73.5,30.26,WSW,257,0.0,0.0,95,0.00,,---,0.00,VWS V14.01,2013-07-15 02:31:00,
2013-07-14 22:36:00,74.9,73.1,30.26,WSW,257,0.0,0.0,94,0.00,,---,0.00,VWS V14.01,2013-07-15 02:36:00,
2013-07-14 22:41:00,74.8,73.0,30.26,WSW,257,0.0,0.0,94,0.00,,---,0.00,VWS V14.01,2013-07-15 02:41:00,
2013-07-14 22:46:00,74.7,72.9,30.26,WSW,256,0.0,0.0,94,0.00,,---,0.00,VWS V14.01,2013-07-15 02:46:00,
2013-07-14 22:52:00,74.6,72.8,30.27,WSW,256,0.0,0.0,94,0.00,,---,0.00,VWS V14.01,2013-07-15 02:52:00,
2013-07-14 22:57:00,74.6,72.8,30.26,WSW,256,0.0,0.0,94,0.00,,---,0.00,VWS V14.01,2013-07-15 02:57:00,
2013-07-14 23:02:00,74.5,72.3,30.27,WSW,255,0.0,0.0,93,0.00,,---,0.00,VWS V14.01,2013-07-15 03:02:00,
2013-07-14 23:07:00,74.4,72.2,30.26,WSW,256,0.0,0.0,93,0.00,,---,0.00,VWS V14.01,2013-07-15 03:07:00,
2013-07-14 23:12:00,74.4,72.2,30.27,WSW,256,0.0,0.0,93,0.00,,---,0.00,VWS V14.01,2013-07-15 03:12:00,
2013-07-14 23:17:00,74.4,72.2,30.27,WSW,256,0.0,0.0,93,0.00,,---,0.00,VWS V14.01,2013-07-15 03:17:00,
2013-07-14 23:22:00,74.5,72.3,30.27,WSW,256,0.0,0.0,93,0.00,,---,0.00,VWS V14.01,2013-07-15 03:22:00,
2013-07-14 23:27:00,74.5,72.3,30.27,WSW,256,0.0,0.0,93,0.00,,---,0.00,VWS V14.01,2013-07-15 03:27:00,
2013-07-14 23:32:00,74.4,72.2,30.27,WSW,255,0.0,0.0,93,0.00,,---,0.00,VWS V14.01,2013-07-15 03:32:00,
2013-07-14 23:38:00,74.3,72.2,30.27,WSW,256,0.0,0.0,93,0.00,,---,0.00,VWS V14.01,2013-07-15 03:38:00,
2013-07-14 23:43:00,74.2,72.1,30.27,WSW,256,0.0,0.0,93,0.00,,---,0.00,VWS V14.01,2013-07-15 03:43:00,
2013-07-14 23:48:00,74.0,71.8,30.27,WSW,256,0.0,0.0,93,0.00,,---,0.00,VWS V14.01,2013-07-15 03:48:00,
2013-07-14 23:53:00,73.9,71.8,30.27,WSW,256,0.0,0.0,93,0.00,,---,0.00,VWS V14.01,2013-07-15 03:53:00,
2013-07-14 23:58:00,73.9,72.1,30.27,WSW,255,0.0,0.0,94,0.00,,---,0.00,VWS V14.01,2013-07-15 03:58:00,